sensor_id;sensor_type;location;lat;lon;timestamp;P1;durP1;ratioP1;P2;durP2;ratioP2
912;SDS011;443;51.448;7.028;2023-08-31T00:02:07;2.50;;;1.63;;
912;SDS011;443;51.448;7.028;2023-08-31T00:04:34;5.43;;;1.67;;
912;SDS011;443;51.448;7.028;2023-08-31T00:07:01;5.40;;;1.93;;
912;SDS011;443;51.448;7.028;2023-08-31T00:09:28;2.73;;;1.57;;
912;SDS011;443;51.448;7.028;2023-08-31T00:11:55;4.23;;;1.70;;
912;SDS011;443;51.448;7.028;2023-08-31T00:14:22;2.50;;;1.10;;
912;SDS011;443;51.448;7.028;2023-08-31T00:16:49;4.50;;;1.90;;
912;SDS011;443;51.448;7.028;2023-08-31T00:19:17;3.63;;;1.90;;
912;SDS011;443;51.448;7.028;2023-08-31T00:21:44;2.60;;;1.50;;
912;SDS011;443;51.448;7.028;2023-08-31T00:24:11;6.47;;;1.70;;
912;SDS011;443;51.448;7.028;2023-08-31T00:26:39;1.90;;;1.63;;
912;SDS011;443;51.448;7.028;2023-08-31T00:29:07;2.60;;;1.50;;
912;SDS011;443;51.448;7.028;2023-08-31T00:31:35;2.50;;;1.60;;
912;SDS011;443;51.448;7.028;2023-08-31T00:34:02;2.87;;;1.50;;
912;SDS011;443;51.448;7.028;2023-08-31T00:36:30;3.33;;;1.83;;
912;SDS011;443;51.448;7.028;2023-08-31T00:38:58;5.10;;;1.90;;
912;SDS011;443;51.448;7.028;2023-08-31T00:41:30;4.43;;;1.97;;
912;SDS011;443;51.448;7.028;2023-08-31T00:43:57;2.80;;;1.80;;
912;SDS011;443;51.448;7.028;2023-08-31T00:46:24;3.57;;;2.97;;
912;SDS011;443;51.448;7.028;2023-08-31T00:48:52;5.10;;;1.90;;
912;SDS011;443;51.448;7.028;2023-08-31T00:51:19;3.00;;;1.60;;
912;SDS011;443;51.448;7.028;2023-08-31T00:53:48;1.80;;;1.40;;
912;SDS011;443;51.448;7.028;2023-08-31T00:56:18;3.80;;;2.07;;
912;SDS011;443;51.448;7.028;2023-08-31T00:58:45;3.43;;;1.97;;
912;SDS011;443;51.448;7.028;2023-08-31T01:01:14;6.00;;;2.00;;
912;SDS011;443;51.448;7.028;2023-08-31T01:03:50;3.30;;;1.77;;
912;SDS011;443;51.448;7.028;2023-08-31T01:06:24;4.17;;;3.00;;
912;SDS011;443;51.448;7.028;2023-08-31T01:09:01;5.03;;;2.47;;
912;SDS011;443;51.448;7.028;2023-08-31T01:11:37;2.23;;;1.97;;
912;SDS011;443;51.448;7.028;2023-08-31T01:14:11;6.27;;;2.93;;
912;SDS011;443;51.448;7.028;2023-08-31T01:16:42;4.13;;;2.63;;
912;SDS011;443;51.448;7.028;2023-08-31T01:19:15;3.30;;;2.40;;
912;SDS011;443;51.448;7.028;2023-08-31T01:21:53;4.60;;;2.43;;
912;SDS011;443;51.448;7.028;2023-08-31T01:24:25;6.17;;;2.00;;
912;SDS011;443;51.448;7.028;2023-08-31T01:26:52;6.50;;;1.70;;
912;SDS011;443;51.448;7.028;2023-08-31T01:29:19;4.20;;;2.13;;
912;SDS011;443;51.448;7.028;2023-08-31T01:31:46;6.43;;;1.73;;
912;SDS011;443;51.448;7.028;2023-08-31T01:34:13;8.93;;;2.80;;
912;SDS011;443;51.448;7.028;2023-08-31T01:36:42;2.07;;;1.80;;
912;SDS011;443;51.448;7.028;2023-08-31T01:39:24;3.73;;;2.33;;
912;SDS011;443;51.448;7.028;2023-08-31T01:42:03;2.73;;;2.10;;
912;SDS011;443;51.448;7.028;2023-08-31T01:44:32;3.90;;;2.30;;
912;SDS011;443;51.448;7.028;2023-08-31T01:47:02;3.93;;;1.57;;
912;SDS011;443;51.448;7.028;2023-08-31T01:49:35;3.87;;;2.20;;
912;SDS011;443;51.448;7.028;2023-08-31T01:52:02;2.70;;;1.57;;
912;SDS011;443;51.448;7.028;2023-08-31T01:54:30;3.47;;;2.00;;
912;SDS011;443;51.448;7.028;2023-08-31T01:56:57;2.77;;;2.40;;
912;SDS011;443;51.448;7.028;2023-08-31T01:59:24;2.73;;;2.03;;
912;SDS011;443;51.448;7.028;2023-08-31T02:01:51;6.83;;;2.00;;
912;SDS011;443;51.448;7.028;2023-08-31T02:04:18;5.97;;;3.73;;
912;SDS011;443;51.448;7.028;2023-08-31T02:06:45;2.23;;;1.67;;
912;SDS011;443;51.448;7.028;2023-08-31T02:09:12;2.60;;;2.20;;
912;SDS011;443;51.448;7.028;2023-08-31T02:11:41;1.93;;;1.73;;
912;SDS011;443;51.448;7.028;2023-08-31T02:14:07;3.43;;;1.53;;
912;SDS011;443;51.448;7.028;2023-08-31T02:16:34;3.30;;;1.90;;
912;SDS011;443;51.448;7.028;2023-08-31T02:19:01;4.17;;;2.10;;
912;SDS011;443;51.448;7.028;2023-08-31T02:21:27;4.13;;;1.93;;
912;SDS011;443;51.448;7.028;2023-08-31T02:23:54;2.87;;;1.83;;
912;SDS011;443;51.448;7.028;2023-08-31T02:26:21;3.60;;;2.00;;
912;SDS011;443;51.448;7.028;2023-08-31T02:28:49;4.87;;;1.50;;
912;SDS011;443;51.448;7.028;2023-08-31T02:31:16;3.83;;;1.53;;
912;SDS011;443;51.448;7.028;2023-08-31T02:33:44;3.80;;;2.23;;
912;SDS011;443;51.448;7.028;2023-08-31T02:36:11;3.60;;;2.37;;
912;SDS011;443;51.448;7.028;2023-08-31T02:38:38;3.60;;;2.63;;
912;SDS011;443;51.448;7.028;2023-08-31T02:41:05;2.70;;;2.17;;
912;SDS011;443;51.448;7.028;2023-08-31T02:43:31;2.83;;;2.00;;
912;SDS011;443;51.448;7.028;2023-08-31T02:46:00;2.47;;;2.07;;
912;SDS011;443;51.448;7.028;2023-08-31T02:48:27;4.60;;;2.20;;
912;SDS011;443;51.448;7.028;2023-08-31T02:50:54;3.23;;;1.90;;
912;SDS011;443;51.448;7.028;2023-08-31T02:53:22;2.17;;;1.47;;
912;SDS011;443;51.448;7.028;2023-08-31T02:55:49;2.83;;;1.93;;
912;SDS011;443;51.448;7.028;2023-08-31T02:58:16;4.53;;;2.37;;
912;SDS011;443;51.448;7.028;2023-08-31T03:00:44;8.90;;;2.77;;
912;SDS011;443;51.448;7.028;2023-08-31T03:03:14;4.43;;;3.27;;
912;SDS011;443;51.448;7.028;2023-08-31T03:05:41;6.00;;;2.47;;
912;SDS011;443;51.448;7.028;2023-08-31T03:08:08;6.77;;;2.30;;
912;SDS011;443;51.448;7.028;2023-08-31T03:10:35;2.57;;;2.00;;
912;SDS011;443;51.448;7.028;2023-08-31T03:13:01;6.23;;;2.10;;
912;SDS011;443;51.448;7.028;2023-08-31T03:15:28;4.23;;;2.87;;
912;SDS011;443;51.448;7.028;2023-08-31T03:17:56;3.70;;;2.43;;
912;SDS011;443;51.448;7.028;2023-08-31T03:20:24;3.13;;;1.80;;
912;SDS011;443;51.448;7.028;2023-08-31T03:22:50;2.93;;;1.97;;
912;SDS011;443;51.448;7.028;2023-08-31T03:25:17;4.50;;;2.20;;
912;SDS011;443;51.448;7.028;2023-08-31T03:27:44;3.60;;;2.60;;
912;SDS011;443;51.448;7.028;2023-08-31T03:30:11;3.63;;;3.33;;
912;SDS011;443;51.448;7.028;2023-08-31T03:32:38;4.40;;;1.90;;
912;SDS011;443;51.448;7.028;2023-08-31T03:35:05;3.60;;;2.13;;
912;SDS011;443;51.448;7.028;2023-08-31T03:37:35;3.13;;;2.57;;
912;SDS011;443;51.448;7.028;2023-08-31T03:40:01;2.63;;;2.40;;
912;SDS011;443;51.448;7.028;2023-08-31T03:42:31;4.33;;;2.90;;
912;SDS011;443;51.448;7.028;2023-08-31T03:44:58;3.90;;;2.83;;
912;SDS011;443;51.448;7.028;2023-08-31T03:47:25;3.77;;;2.63;;
912;SDS011;443;51.448;7.028;2023-08-31T03:49:52;2.23;;;1.70;;
912;SDS011;443;51.448;7.028;2023-08-31T03:52:19;3.97;;;2.10;;
912;SDS011;443;51.448;7.028;2023-08-31T03:54:47;5.80;;;2.70;;
912;SDS011;443;51.448;7.028;2023-08-31T03:57:14;3.47;;;2.40;;
912;SDS011;443;51.448;7.028;2023-08-31T03:59:41;4.27;;;3.30;;
912;SDS011;443;51.448;7.028;2023-08-31T04:02:07;3.40;;;3.10;;
912;SDS011;443;51.448;7.028;2023-08-31T04:04:34;3.13;;;2.80;;
912;SDS011;443;51.448;7.028;2023-08-31T04:07:01;5.70;;;2.77;;
912;SDS011;443;51.448;7.028;2023-08-31T04:09:27;6.90;;;2.90;;
912;SDS011;443;51.448;7.028;2023-08-31T04:11:56;2.50;;;2.30;;
912;SDS011;443;51.448;7.028;2023-08-31T04:14:23;3.00;;;2.57;;
912;SDS011;443;51.448;7.028;2023-08-31T04:16:51;8.27;;;3.03;;
912;SDS011;443;51.448;7.028;2023-08-31T04:19:18;3.60;;;2.40;;
912;SDS011;443;51.448;7.028;2023-08-31T04:21:45;6.03;;;3.60;;
912;SDS011;443;51.448;7.028;2023-08-31T04:24:12;3.90;;;2.93;;
912;SDS011;443;51.448;7.028;2023-08-31T04:26:39;3.20;;;2.00;;
912;SDS011;443;51.448;7.028;2023-08-31T04:29:07;4.63;;;3.00;;
912;SDS011;443;51.448;7.028;2023-08-31T04:31:34;3.60;;;2.93;;
912;SDS011;443;51.448;7.028;2023-08-31T04:34:01;5.10;;;3.70;;
912;SDS011;443;51.448;7.028;2023-08-31T04:36:27;3.33;;;2.80;;
912;SDS011;443;51.448;7.028;2023-08-31T04:38:54;5.53;;;3.83;;
912;SDS011;443;51.448;7.028;2023-08-31T04:41:21;4.53;;;4.00;;
912;SDS011;443;51.448;7.028;2023-08-31T04:43:48;6.83;;;4.53;;
912;SDS011;443;51.448;7.028;2023-08-31T04:46:16;11.43;;;4.37;;
912;SDS011;443;51.448;7.028;2023-08-31T04:48:42;5.40;;;4.40;;
912;SDS011;443;51.448;7.028;2023-08-31T04:51:09;7.17;;;4.60;;
912;SDS011;443;51.448;7.028;2023-08-31T04:53:53;5.37;;;4.13;;
912;SDS011;443;51.448;7.028;2023-08-31T04:56:20;6.37;;;3.43;;
912;SDS011;443;51.448;7.028;2023-08-31T04:58:47;5.90;;;4.53;;
912;SDS011;443;51.448;7.028;2023-08-31T05:01:15;5.30;;;3.73;;
912;SDS011;443;51.448;7.028;2023-08-31T05:03:42;6.80;;;3.93;;
912;SDS011;443;51.448;7.028;2023-08-31T05:06:09;6.03;;;4.77;;
912;SDS011;443;51.448;7.028;2023-08-31T05:08:35;6.43;;;4.07;;
912;SDS011;443;51.448;7.028;2023-08-31T05:11:03;6.23;;;4.83;;
912;SDS011;443;51.448;7.028;2023-08-31T05:13:30;6.93;;;5.10;;
912;SDS011;443;51.448;7.028;2023-08-31T05:15:56;6.90;;;4.07;;
912;SDS011;443;51.448;7.028;2023-08-31T05:18:24;8.03;;;4.40;;
912;SDS011;443;51.448;7.028;2023-08-31T05:20:51;5.63;;;3.50;;
912;SDS011;443;51.448;7.028;2023-08-31T05:23:18;7.80;;;5.47;;
912;SDS011;443;51.448;7.028;2023-08-31T05:25:45;5.40;;;4.27;;
912;SDS011;443;51.448;7.028;2023-08-31T05:28:12;3.83;;;2.90;;
912;SDS011;443;51.448;7.028;2023-08-31T05:30:45;6.93;;;3.83;;
912;SDS011;443;51.448;7.028;2023-08-31T05:33:14;6.53;;;4.50;;
912;SDS011;443;51.448;7.028;2023-08-31T05:35:42;5.20;;;4.10;;
912;SDS011;443;51.448;7.028;2023-08-31T05:38:08;5.37;;;3.47;;
912;SDS011;443;51.448;7.028;2023-08-31T05:40:35;5.67;;;3.53;;
912;SDS011;443;51.448;7.028;2023-08-31T05:43:02;3.80;;;2.87;;
912;SDS011;443;51.448;7.028;2023-08-31T05:45:31;6.77;;;3.47;;
912;SDS011;443;51.448;7.028;2023-08-31T05:47:58;5.60;;;3.43;;
912;SDS011;443;51.448;7.028;2023-08-31T05:50:25;7.33;;;4.00;;
912;SDS011;443;51.448;7.028;2023-08-31T05:52:53;3.03;;;2.53;;
912;SDS011;443;51.448;7.028;2023-08-31T05:55:20;4.97;;;3.43;;
912;SDS011;443;51.448;7.028;2023-08-31T05:57:47;7.10;;;2.80;;
912;SDS011;443;51.448;7.028;2023-08-31T06:00:14;4.50;;;3.47;;
912;SDS011;443;51.448;7.028;2023-08-31T06:02:41;3.33;;;2.50;;
912;SDS011;443;51.448;7.028;2023-08-31T06:05:09;5.33;;;3.43;;
912;SDS011;443;51.448;7.028;2023-08-31T06:07:38;3.90;;;2.90;;
912;SDS011;443;51.448;7.028;2023-08-31T06:10:07;5.77;;;3.17;;
912;SDS011;443;51.448;7.028;2023-08-31T06:12:34;5.50;;;3.97;;
912;SDS011;443;51.448;7.028;2023-08-31T06:15:01;4.47;;;2.87;;
912;SDS011;443;51.448;7.028;2023-08-31T06:17:28;8.70;;;4.33;;
912;SDS011;443;51.448;7.028;2023-08-31T06:19:55;5.53;;;3.87;;
912;SDS011;443;51.448;7.028;2023-08-31T06:22:22;5.23;;;3.20;;
912;SDS011;443;51.448;7.028;2023-08-31T06:24:49;7.03;;;3.40;;
912;SDS011;443;51.448;7.028;2023-08-31T06:27:18;5.53;;;3.93;;
912;SDS011;443;51.448;7.028;2023-08-31T06:29:44;4.03;;;3.63;;
912;SDS011;443;51.448;7.028;2023-08-31T06:32:11;9.33;;;4.73;;
912;SDS011;443;51.448;7.028;2023-08-31T06:34:38;8.63;;;3.20;;
912;SDS011;443;51.448;7.028;2023-08-31T06:37:05;3.70;;;2.80;;
912;SDS011;443;51.448;7.028;2023-08-31T06:39:31;4.77;;;3.90;;
912;SDS011;443;51.448;7.028;2023-08-31T06:41:59;4.43;;;2.80;;
912;SDS011;443;51.448;7.028;2023-08-31T06:44:27;3.77;;;3.10;;
912;SDS011;443;51.448;7.028;2023-08-31T06:46:54;6.03;;;3.40;;
912;SDS011;443;51.448;7.028;2023-08-31T06:49:21;4.63;;;2.90;;
912;SDS011;443;51.448;7.028;2023-08-31T06:51:48;4.50;;;2.67;;
912;SDS011;443;51.448;7.028;2023-08-31T06:54:15;5.20;;;3.47;;
912;SDS011;443;51.448;7.028;2023-08-31T06:56:42;3.73;;;3.07;;
912;SDS011;443;51.448;7.028;2023-08-31T06:59:08;5.10;;;3.07;;
912;SDS011;443;51.448;7.028;2023-08-31T07:01:36;4.33;;;3.30;;
912;SDS011;443;51.448;7.028;2023-08-31T07:04:03;4.63;;;3.00;;
912;SDS011;443;51.448;7.028;2023-08-31T07:06:31;7.93;;;3.53;;
912;SDS011;443;51.448;7.028;2023-08-31T07:08:59;6.40;;;3.23;;
912;SDS011;443;51.448;7.028;2023-08-31T07:11:26;5.80;;;3.57;;
912;SDS011;443;51.448;7.028;2023-08-31T07:13:53;2.90;;;2.60;;
912;SDS011;443;51.448;7.028;2023-08-31T07:16:19;4.87;;;2.83;;
912;SDS011;443;51.448;7.028;2023-08-31T07:18:47;3.27;;;2.30;;
912;SDS011;443;51.448;7.028;2023-08-31T07:21:14;5.30;;;2.60;;
912;SDS011;443;51.448;7.028;2023-08-31T07:23:41;7.80;;;2.50;;
912;SDS011;443;51.448;7.028;2023-08-31T07:26:07;5.37;;;3.63;;
912;SDS011;443;51.448;7.028;2023-08-31T07:28:34;2.47;;;2.27;;
912;SDS011;443;51.448;7.028;2023-08-31T07:31:01;3.70;;;2.63;;
912;SDS011;443;51.448;7.028;2023-08-31T07:33:29;4.83;;;2.83;;
912;SDS011;443;51.448;7.028;2023-08-31T07:35:58;5.53;;;2.90;;
912;SDS011;443;51.448;7.028;2023-08-31T07:38:26;4.87;;;3.23;;
912;SDS011;443;51.448;7.028;2023-08-31T07:40:53;3.03;;;2.30;;
912;SDS011;443;51.448;7.028;2023-08-31T07:43:20;3.07;;;2.60;;
912;SDS011;443;51.448;7.028;2023-08-31T07:45:46;4.80;;;3.70;;
912;SDS011;443;51.448;7.028;2023-08-31T07:48:13;3.40;;;2.70;;
912;SDS011;443;51.448;7.028;2023-08-31T07:50:40;4.40;;;2.43;;
912;SDS011;443;51.448;7.028;2023-08-31T07:53:08;8.47;;;3.37;;
912;SDS011;443;51.448;7.028;2023-08-31T07:55:35;3.43;;;2.50;;
912;SDS011;443;51.448;7.028;2023-08-31T07:58:02;3.40;;;2.20;;
912;SDS011;443;51.448;7.028;2023-08-31T08:00:29;3.70;;;2.20;;
912;SDS011;443;51.448;7.028;2023-08-31T08:02:56;2.83;;;2.20;;
912;SDS011;443;51.448;7.028;2023-08-31T08:05:22;3.60;;;2.20;;
912;SDS011;443;51.448;7.028;2023-08-31T08:07:49;4.60;;;2.67;;
912;SDS011;443;51.448;7.028;2023-08-31T08:10:18;7.93;;;3.40;;
912;SDS011;443;51.448;7.028;2023-08-31T08:12:44;4.67;;;3.90;;
912;SDS011;443;51.448;7.028;2023-08-31T08:15:11;3.93;;;2.67;;
912;SDS011;443;51.448;7.028;2023-08-31T08:17:38;2.37;;;1.70;;
912;SDS011;443;51.448;7.028;2023-08-31T08:20:06;2.93;;;2.20;;
912;SDS011;443;51.448;7.028;2023-08-31T08:22:34;5.17;;;2.43;;
912;SDS011;443;51.448;7.028;2023-08-31T08:25:02;5.43;;;2.80;;
912;SDS011;443;51.448;7.028;2023-08-31T08:27:30;2.73;;;2.37;;
912;SDS011;443;51.448;7.028;2023-08-31T08:29:58;6.10;;;3.13;;
912;SDS011;443;51.448;7.028;2023-08-31T08:32:24;4.03;;;2.43;;
912;SDS011;443;51.448;7.028;2023-08-31T08:34:51;5.10;;;2.47;;
912;SDS011;443;51.448;7.028;2023-08-31T08:37:18;3.87;;;2.90;;
912;SDS011;443;51.448;7.028;2023-08-31T08:39:47;2.63;;;2.23;;
912;SDS011;443;51.448;7.028;2023-08-31T08:42:15;3.37;;;1.83;;
912;SDS011;443;51.448;7.028;2023-08-31T08:44:45;4.67;;;2.50;;
912;SDS011;443;51.448;7.028;2023-08-31T08:47:13;4.17;;;2.73;;
912;SDS011;443;51.448;7.028;2023-08-31T08:49:41;2.77;;;2.50;;
912;SDS011;443;51.448;7.028;2023-08-31T08:52:09;4.03;;;2.70;;
912;SDS011;443;51.448;7.028;2023-08-31T08:54:37;4.77;;;3.33;;
912;SDS011;443;51.448;7.028;2023-08-31T08:57:04;2.70;;;2.43;;
912;SDS011;443;51.448;7.028;2023-08-31T08:59:31;3.43;;;1.90;;
912;SDS011;443;51.448;7.028;2023-08-31T09:01:59;3.00;;;2.70;;
912;SDS011;443;51.448;7.028;2023-08-31T09:04:26;13.10;;;3.00;;
912;SDS011;443;51.448;7.028;2023-08-31T09:07:03;3.33;;;2.17;;
912;SDS011;443;51.448;7.028;2023-08-31T09:09:30;3.37;;;3.07;;
912;SDS011;443;51.448;7.028;2023-08-31T09:11:57;3.50;;;2.77;;
912;SDS011;443;51.448;7.028;2023-08-31T09:14:32;3.60;;;2.67;;
912;SDS011;443;51.448;7.028;2023-08-31T09:16:59;10.13;;;3.47;;
912;SDS011;443;51.448;7.028;2023-08-31T09:19:26;3.57;;;2.20;;
912;SDS011;443;51.448;7.028;2023-08-31T09:21:55;3.70;;;2.57;;
912;SDS011;443;51.448;7.028;2023-08-31T09:24:24;5.23;;;2.07;;
912;SDS011;443;51.448;7.028;2023-08-31T09:26:52;4.90;;;2.20;;
912;SDS011;443;51.448;7.028;2023-08-31T09:29:19;4.43;;;2.30;;
912;SDS011;443;51.448;7.028;2023-08-31T09:31:46;5.90;;;2.47;;
912;SDS011;443;51.448;7.028;2023-08-31T09:34:14;2.90;;;2.50;;
912;SDS011;443;51.448;7.028;2023-08-31T09:36:41;4.70;;;2.40;;
912;SDS011;443;51.448;7.028;2023-08-31T09:39:08;6.27;;;2.20;;
912;SDS011;443;51.448;7.028;2023-08-31T09:41:39;5.80;;;3.27;;
912;SDS011;443;51.448;7.028;2023-08-31T09:44:18;3.80;;;2.73;;
912;SDS011;443;51.448;7.028;2023-08-31T09:46:46;4.33;;;3.37;;
912;SDS011;443;51.448;7.028;2023-08-31T09:49:13;2.37;;;1.90;;
912;SDS011;443;51.448;7.028;2023-08-31T09:51:41;6.10;;;2.30;;
912;SDS011;443;51.448;7.028;2023-08-31T09:54:11;5.57;;;2.93;;
912;SDS011;443;51.448;7.028;2023-08-31T09:56:41;7.93;;;2.00;;
912;SDS011;443;51.448;7.028;2023-08-31T09:59:09;2.90;;;2.50;;
912;SDS011;443;51.448;7.028;2023-08-31T10:01:37;4.87;;;2.40;;
912;SDS011;443;51.448;7.028;2023-08-31T10:04:05;4.83;;;2.67;;
912;SDS011;443;51.448;7.028;2023-08-31T10:06:34;6.10;;;2.27;;
912;SDS011;443;51.448;7.028;2023-08-31T10:09:01;3.90;;;2.17;;
912;SDS011;443;51.448;7.028;2023-08-31T10:11:29;4.17;;;1.67;;
912;SDS011;443;51.448;7.028;2023-08-31T10:13:58;4.53;;;2.20;;
912;SDS011;443;51.448;7.028;2023-08-31T10:16:25;2.40;;;2.07;;
912;SDS011;443;51.448;7.028;2023-08-31T10:18:52;2.47;;;2.00;;
912;SDS011;443;51.448;7.028;2023-08-31T10:21:20;5.43;;;1.80;;
912;SDS011;443;51.448;7.028;2023-08-31T10:23:47;3.80;;;2.10;;
912;SDS011;443;51.448;7.028;2023-08-31T10:26:22;3.20;;;2.30;;
912;SDS011;443;51.448;7.028;2023-08-31T10:28:50;1.77;;;1.43;;
912;SDS011;443;51.448;7.028;2023-08-31T10:31:19;3.50;;;1.30;;
912;SDS011;443;51.448;7.028;2023-08-31T10:33:47;2.70;;;1.60;;
912;SDS011;443;51.448;7.028;2023-08-31T10:36:22;3.17;;;1.47;;
912;SDS011;443;51.448;7.028;2023-08-31T10:39:04;5.57;;;1.70;;
912;SDS011;443;51.448;7.028;2023-08-31T10:41:32;8.90;;;1.70;;
912;SDS011;443;51.448;7.028;2023-08-31T10:44:00;4.03;;;1.60;;
912;SDS011;443;51.448;7.028;2023-08-31T10:46:29;2.60;;;1.60;;
912;SDS011;443;51.448;7.028;2023-08-31T10:48:58;3.70;;;1.50;;
912;SDS011;443;51.448;7.028;2023-08-31T10:51:26;3.10;;;1.60;;
912;SDS011;443;51.448;7.028;2023-08-31T10:54:03;2.10;;;1.60;;
912;SDS011;443;51.448;7.028;2023-08-31T10:56:42;2.83;;;1.33;;
912;SDS011;443;51.448;7.028;2023-08-31T10:59:45;4.07;;;2.20;;
912;SDS011;443;51.448;7.028;2023-08-31T11:02:31;3.37;;;1.93;;
912;SDS011;443;51.448;7.028;2023-08-31T11:05:01;2.93;;;1.70;;
912;SDS011;443;51.448;7.028;2023-08-31T11:07:31;3.40;;;2.20;;
912;SDS011;443;51.448;7.028;2023-08-31T11:12:49;2.90;;;1.50;;
912;SDS011;443;51.448;7.028;2023-08-31T11:15:17;4.37;;;2.17;;
912;SDS011;443;51.448;7.028;2023-08-31T11:17:48;4.00;;;2.73;;
912;SDS011;443;51.448;7.028;2023-08-31T11:20:17;5.93;;;2.37;;
912;SDS011;443;51.448;7.028;2023-08-31T11:22:45;5.70;;;2.43;;
912;SDS011;443;51.448;7.028;2023-08-31T11:25:14;5.10;;;2.47;;
912;SDS011;443;51.448;7.028;2023-08-31T11:27:52;3.10;;;2.03;;
912;SDS011;443;51.448;7.028;2023-08-31T11:30:19;3.20;;;1.50;;
912;SDS011;443;51.448;7.028;2023-08-31T11:32:47;2.43;;;1.57;;
912;SDS011;443;51.448;7.028;2023-08-31T11:35:16;3.10;;;1.50;;
912;SDS011;443;51.448;7.028;2023-08-31T11:37:43;2.80;;;1.30;;
912;SDS011;443;51.448;7.028;2023-08-31T11:40:11;3.80;;;2.20;;
912;SDS011;443;51.448;7.028;2023-08-31T11:42:39;5.50;;;1.90;;
912;SDS011;443;51.448;7.028;2023-08-31T11:45:07;6.50;;;1.90;;
912;SDS011;443;51.448;7.028;2023-08-31T11:47:35;2.30;;;1.33;;
912;SDS011;443;51.448;7.028;2023-08-31T11:50:06;1.80;;;1.17;;
912;SDS011;443;51.448;7.028;2023-08-31T11:52:34;3.77;;;2.03;;
912;SDS011;443;51.448;7.028;2023-08-31T11:55:00;2.30;;;1.23;;
912;SDS011;443;51.448;7.028;2023-08-31T11:57:28;2.47;;;1.20;;
912;SDS011;443;51.448;7.028;2023-08-31T11:59:55;1.90;;;1.30;;
912;SDS011;443;51.448;7.028;2023-08-31T12:02:22;2.87;;;1.27;;
912;SDS011;443;51.448;7.028;2023-08-31T12:04:48;3.77;;;1.97;;
912;SDS011;443;51.448;7.028;2023-08-31T12:07:17;3.27;;;1.80;;
912;SDS011;443;51.448;7.028;2023-08-31T12:09:45;2.20;;;1.40;;
912;SDS011;443;51.448;7.028;2023-08-31T12:12:13;1.70;;;1.50;;
912;SDS011;443;51.448;7.028;2023-08-31T12:14:40;3.90;;;1.60;;
912;SDS011;443;51.448;7.028;2023-08-31T12:17:07;4.33;;;2.60;;
912;SDS011;443;51.448;7.028;2023-08-31T12:19:36;4.27;;;2.00;;
912;SDS011;443;51.448;7.028;2023-08-31T12:22:03;3.40;;;1.80;;
912;SDS011;443;51.448;7.028;2023-08-31T12:24:38;5.00;;;1.40;;
912;SDS011;443;51.448;7.028;2023-08-31T12:27:05;2.50;;;2.03;;
912;SDS011;443;51.448;7.028;2023-08-31T12:29:32;3.63;;;1.50;;
912;SDS011;443;51.448;7.028;2023-08-31T12:31:59;2.97;;;1.47;;
912;SDS011;443;51.448;7.028;2023-08-31T12:34:26;2.30;;;1.37;;
912;SDS011;443;51.448;7.028;2023-08-31T12:36:52;6.63;;;1.70;;
912;SDS011;443;51.448;7.028;2023-08-31T12:39:19;2.87;;;1.70;;
912;SDS011;443;51.448;7.028;2023-08-31T12:41:47;2.73;;;1.70;;
912;SDS011;443;51.448;7.028;2023-08-31T12:44:14;3.33;;;1.60;;
912;SDS011;443;51.448;7.028;2023-08-31T12:46:41;5.73;;;1.30;;
912;SDS011;443;51.448;7.028;2023-08-31T12:49:08;6.90;;;2.00;;
912;SDS011;443;51.448;7.028;2023-08-31T12:51:34;1.80;;;1.27;;
912;SDS011;443;51.448;7.028;2023-08-31T12:54:02;2.77;;;1.93;;
912;SDS011;443;51.448;7.028;2023-08-31T12:56:29;2.60;;;1.90;;
912;SDS011;443;51.448;7.028;2023-08-31T12:58:57;3.43;;;1.67;;
912;SDS011;443;51.448;7.028;2023-08-31T13:01:23;1.90;;;1.20;;
912;SDS011;443;51.448;7.028;2023-08-31T13:03:51;2.80;;;2.03;;
912;SDS011;443;51.448;7.028;2023-08-31T13:06:18;2.23;;;2.03;;
912;SDS011;443;51.448;7.028;2023-08-31T13:08:45;2.60;;;1.80;;
912;SDS011;443;51.448;7.028;2023-08-31T13:11:12;2.03;;;1.30;;
912;SDS011;443;51.448;7.028;2023-08-31T13:13:40;6.67;;;2.20;;
912;SDS011;443;51.448;7.028;2023-08-31T13:16:08;4.33;;;2.90;;
912;SDS011;443;51.448;7.028;2023-08-31T13:18:35;1.77;;;1.30;;
912;SDS011;443;51.448;7.028;2023-08-31T13:21:02;6.67;;;1.80;;
912;SDS011;443;51.448;7.028;2023-08-31T13:23:28;4.17;;;1.93;;
912;SDS011;443;51.448;7.028;2023-08-31T13:25:55;3.30;;;1.83;;
912;SDS011;443;51.448;7.028;2023-08-31T13:28:22;3.27;;;1.63;;
912;SDS011;443;51.448;7.028;2023-08-31T13:30:49;2.30;;;1.37;;
912;SDS011;443;51.448;7.028;2023-08-31T13:33:18;11.03;;;2.07;;
912;SDS011;443;51.448;7.028;2023-08-31T13:35:45;3.13;;;2.00;;
912;SDS011;443;51.448;7.028;2023-08-31T13:38:12;2.63;;;1.53;;
912;SDS011;443;51.448;7.028;2023-08-31T13:40:39;2.13;;;1.37;;
912;SDS011;443;51.448;7.028;2023-08-31T13:43:06;2.00;;;1.60;;
912;SDS011;443;51.448;7.028;2023-08-31T13:45:33;2.93;;;2.20;;
912;SDS011;443;51.448;7.028;2023-08-31T13:48:00;3.30;;;1.53;;
912;SDS011;443;51.448;7.028;2023-08-31T13:50:30;2.37;;;1.20;;
912;SDS011;443;51.448;7.028;2023-08-31T13:52:57;3.73;;;1.10;;
912;SDS011;443;51.448;7.028;2023-08-31T13:55:24;3.73;;;1.97;;
912;SDS011;443;51.448;7.028;2023-08-31T13:57:52;2.20;;;1.70;;
912;SDS011;443;51.448;7.028;2023-08-31T14:00:18;2.57;;;2.13;;
912;SDS011;443;51.448;7.028;2023-08-31T14:02:46;4.23;;;1.90;;
912;SDS011;443;51.448;7.028;2023-08-31T14:05:12;2.33;;;1.80;;
912;SDS011;443;51.448;7.028;2023-08-31T14:07:41;2.83;;;1.60;;
912;SDS011;443;51.448;7.028;2023-08-31T14:10:08;2.33;;;1.53;;
912;SDS011;443;51.448;7.028;2023-08-31T14:12:35;3.20;;;1.40;;
912;SDS011;443;51.448;7.028;2023-08-31T14:15:03;3.13;;;1.43;;
912;SDS011;443;51.448;7.028;2023-08-31T14:17:31;3.00;;;1.50;;
912;SDS011;443;51.448;7.028;2023-08-31T14:19:58;1.90;;;1.63;;
912;SDS011;443;51.448;7.028;2023-08-31T14:22:25;2.10;;;1.67;;
912;SDS011;443;51.448;7.028;2023-08-31T14:24:54;3.50;;;1.83;;
912;SDS011;443;51.448;7.028;2023-08-31T14:27:21;3.60;;;1.60;;
912;SDS011;443;51.448;7.028;2023-08-31T14:29:49;9.00;;;2.10;;
912;SDS011;443;51.448;7.028;2023-08-31T14:32:15;6.53;;;3.10;;
912;SDS011;443;51.448;7.028;2023-08-31T14:34:42;2.33;;;2.10;;
912;SDS011;443;51.448;7.028;2023-08-31T14:37:09;4.30;;;2.70;;
912;SDS011;443;51.448;7.028;2023-08-31T14:39:36;4.37;;;2.77;;
912;SDS011;443;51.448;7.028;2023-08-31T14:42:04;7.83;;;3.27;;
912;SDS011;443;51.448;7.028;2023-08-31T14:44:31;2.07;;;1.50;;
912;SDS011;443;51.448;7.028;2023-08-31T14:46:58;2.83;;;2.40;;
912;SDS011;443;51.448;7.028;2023-08-31T14:49:24;4.33;;;3.87;;
912;SDS011;443;51.448;7.028;2023-08-31T14:51:51;3.23;;;2.93;;
912;SDS011;443;51.448;7.028;2023-08-31T14:54:18;5.60;;;3.33;;
912;SDS011;443;51.448;7.028;2023-08-31T14:56:45;4.27;;;2.90;;
912;SDS011;443;51.448;7.028;2023-08-31T14:59:13;5.00;;;3.40;;
912;SDS011;443;51.448;7.028;2023-08-31T15:01:39;3.20;;;2.87;;
912;SDS011;443;51.448;7.028;2023-08-31T15:04:06;6.67;;;3.70;;
912;SDS011;443;51.448;7.028;2023-08-31T15:06:33;4.30;;;3.63;;
912;SDS011;443;51.448;7.028;2023-08-31T15:09:00;5.47;;;3.27;;
912;SDS011;443;51.448;7.028;2023-08-31T15:11:26;5.40;;;3.30;;
912;SDS011;443;51.448;7.028;2023-08-31T15:13:53;4.63;;;3.23;;
912;SDS011;443;51.448;7.028;2023-08-31T15:16:21;4.13;;;3.20;;
912;SDS011;443;51.448;7.028;2023-08-31T15:18:49;3.43;;;2.53;;
912;SDS011;443;51.448;7.028;2023-08-31T15:21:15;3.67;;;3.30;;
912;SDS011;443;51.448;7.028;2023-08-31T15:23:42;3.90;;;3.40;;
912;SDS011;443;51.448;7.028;2023-08-31T15:26:10;3.27;;;2.70;;
912;SDS011;443;51.448;7.028;2023-08-31T15:28:38;4.57;;;2.77;;
912;SDS011;443;51.448;7.028;2023-08-31T15:31:05;5.60;;;3.00;;
912;SDS011;443;51.448;7.028;2023-08-31T15:33:33;3.40;;;2.70;;
912;SDS011;443;51.448;7.028;2023-08-31T15:36:03;4.20;;;2.73;;
912;SDS011;443;51.448;7.028;2023-08-31T15:38:30;10.60;;;5.20;;
912;SDS011;443;51.448;7.028;2023-08-31T15:40:57;4.00;;;2.97;;
912;SDS011;443;51.448;7.028;2023-08-31T15:43:25;5.17;;;2.67;;
912;SDS011;443;51.448;7.028;2023-08-31T15:45:55;3.73;;;2.60;;
912;SDS011;443;51.448;7.028;2023-08-31T15:48:22;5.53;;;3.33;;
912;SDS011;443;51.448;7.028;2023-08-31T15:50:50;3.73;;;2.40;;
912;SDS011;443;51.448;7.028;2023-08-31T15:53:17;6.83;;;3.77;;